Time;durP1;ratioP1;P1;durP2;ratioP2;P2;SDS_P1;SDS_P2;PMS_P1;PMS_P2;Temp;Humidity;BMP_temperature;BMP_pressure;BME280_temperature;BME280_humidity;BME280_pressure;Samples;Min_cycle;Max_cycle;Signal;HPM_P1;HPM_P2
2022/07/04 00:00:06;;;;;;;1.43;1.33;;;21.40;62.90;;;;;;5010493;28;20735;-83
2022/07/04 00:02:33;;;;;;;1.63;1.33;;;21.30;63.30;;;;;;4992419;28;20450;-82
2022/07/04 00:05:00;;;;;;;1.63;1.20;;;21.20;63.60;;;;;;4989080;28;20461;-84
2022/07/04 00:07:27;;;;;;;4.10;1.40;;;21.20;63.80;;;;;;4989670;28;20546;-82
2022/07/04 00:09:54;;;;;;;1.63;1.23;;;21.10;63.80;;;;;;4990750;28;20974;-84
2022/07/04 00:12:21;;;;;;;1.40;1.30;;;21.10;64.20;;;;;;4989621;28;20486;-83
2022/07/04 00:14:48;;;;;;;1.37;1.20;;;21.10;64.30;;;;;;4990751;28;20493;-84
2022/07/04 00:17:15;;;;;;;1.27;1.10;;;21.10;64.20;;;;;;5007128;28;20462;-85
2022/07/04 00:19:41;;;;;;;2.00;1.43;;;21.10;64.50;;;;;;4990511;28;20649;-84
2022/07/04 00:22:08;;;;;;;2.57;1.37;;;21.00;64.70;;;;;;5006270;28;20454;-84
2022/07/04 00:24:35;;;;;;;3.17;1.60;;;21.00;64.80;;;;;;4991155;28;21710;-83
2022/07/04 00:27:02;;;;;;;2.30;1.40;;;20.90;65.00;;;;;;5006139;28;20484;-85
2022/07/04 00:29:29;;;;;;;1.70;1.37;;;20.90;65.00;;;;;;5008890;28;20450;-84
2022/07/04 00:31:56;;;;;;;1.37;1.27;;;20.80;65.20;;;;;;4993176;28;20470;-85
2022/07/04 00:34:23;;;;;;;1.70;1.60;;;20.90;65.30;;;;;;5013219;28;20583;-83
2022/07/04 00:36:49;;;;;;;1.30;1.10;;;20.90;65.30;;;;;;5007865;28;20481;-82
2022/07/04 00:39:16;;;;;;;1.23;1.13;;;20.90;65.10;;;;;;5011310;28;20461;-83
2022/07/04 00:41:43;;;;;;;2.47;1.23;;;20.90;65.20;;;;;;5010231;28;20462;-85
2022/07/04 00:44:12;;;;;;;1.30;1.20;;;20.90;65.50;;;;;;5010065;28;20454;-83
2022/07/04 00:46:41;;;;;;;1.43;1.13;;;20.90;65.60;;;;;;4995755;28;20487;-83
2022/07/04 00:49:08;;;;;;;3.90;1.47;;;20.90;65.70;;;;;;5015620;28;20979;-82
2022/07/04 00:51:35;;;;;;;2.40;1.43;;;20.80;65.80;;;;;;5017643;28;20467;-84
2022/07/04 00:54:02;;;;;;;1.87;1.50;;;20.80;66.00;;;;;;5015173;28;20509;-84
2022/07/04 00:56:29;;;;;;;3.73;1.40;;;20.80;66.20;;;;;;5011837;28;20508;-84
2022/07/04 00:58:58;;;;;;;1.77;0.90;;;20.80;66.30;;;;;;5014298;28;20469;-83
2022/07/04 01:01:25;;;;;;;1.50;1.40;;;20.70;66.50;;;;;;5013643;28;20461;-83
2022/07/04 01:03:52;;;;;;;5.50;1.70;;;20.60;66.80;;;;;;5010978;28;20454;-84
2022/07/04 01:06:19;;;;;;;1.80;1.50;;;20.60;66.80;;;;;;5014306;28;20472;-83
2022/07/04 01:08:47;;;;;;;1.80;1.23;;;20.50;67.10;;;;;;4994618;28;20464;-84
2022/07/04 01:11:15;;;;;;;2.23;1.33;;;20.50;67.10;;;;;;4996329;28;20446;-83
2022/07/04 01:13:42;;;;;;;2.70;1.67;;;20.50;67.20;;;;;;5013654;28;20492;-82
2022/07/04 01:16:11;;;;;;;3.67;1.87;;;20.40;67.20;;;;;;5010596;28;20468;-83
2022/07/04 01:18:38;;;;;;;1.30;1.20;;;20.50;67.30;;;;;;5017096;28;20453;-82
2022/07/04 01:21:06;;;;;;;3.73;1.00;;;20.40;67.10;;;;;;5017341;28;20835;-83
2022/07/04 01:23:37;;;;;;;1.57;1.20;;;20.40;67.20;;;;;;5013251;28;20954;-84
2022/07/04 01:26:04;;;;;;;1.33;1.10;;;20.20;67.20;;;;;;4996824;28;20485;-83
2022/07/04 01:28:31;;;;;;;1.60;1.40;;;20.20;67.60;;;;;;5013386;28;20452;-85
2022/07/04 01:30:58;;;;;;;4.53;1.40;;;20.30;67.70;;;;;;5010146;28;20469;-83
2022/07/04 01:33:25;;;;;;;1.63;1.07;;;20.30;67.70;;;;;;5018479;28;20512;-83
2022/07/04 01:35:52;;;;;;;1.60;1.47;;;20.30;67.50;;;;;;5007385;28;20474;-85
2022/07/04 01:38:18;;;;;;;2.23;1.50;;;20.30;67.70;;;;;;5005811;28;20442;-84
2022/07/04 01:40:45;;;;;;;2.83;1.97;;;20.20;67.90;;;;;;5017214;28;20465;-84
2022/07/04 01:43:12;;;;;;;2.37;1.50;;;20.20;68.30;;;;;;4994801;28;20466;-83
2022/07/04 01:45:39;;;;;;;1.23;1.10;;;20.20;68.80;;;;;;5013198;28;20465;-81
2022/07/04 01:48:07;;;;;;;2.63;1.63;;;20.10;69.00;;;;;;5010624;28;20473;-82
2022/07/04 01:50:35;;;;;;;5.07;1.43;;;20.00;69.30;;;;;;5012723;28;20564;-84
2022/07/04 01:53:02;;;;;;;2.50;1.37;;;20.00;69.40;;;;;;5013173;28;20453;-83
2022/07/04 01:55:29;;;;;;;1.97;1.33;;;20.00;69.70;;;;;;5013439;28;20479;-83
2022/07/04 01:57:56;;;;;;;3.33;1.80;;;20.00;69.60;;;;;;5000678;28;20458;-85
2022/07/04 02:03:10;;;;;;;3.63;1.67;;;20.00;70.10;;;;;;5030125;28;20486;-84
2022/07/04 02:05:37;;;;;;;1.60;1.50;;;19.90;70.30;;;;;;5015511;28;20458;-84
2022/07/04 02:08:04;;;;;;;2.47;1.67;;;19.90;70.50;;;;;;5030267;28;20484;-85
2022/07/04 02:10:31;;;;;;;4.20;1.63;;;19.80;70.90;;;;;;5013331;28;20453;-84
2022/07/04 02:13:01;;;;;;;2.60;1.50;;;19.80;71.30;;;;;;5028333;28;20442;-83
2022/07/04 02:15:40;;;;;;;2.50;1.70;;;19.70;71.70;;;;;;5031914;28;20465;-82
2022/07/04 02:18:10;;;;;;;1.53;1.40;;;19.70;72.10;;;;;;5030104;28;20481;-84
2022/07/04 02:20:37;;;;;;;3.03;1.77;;;19.70;72.00;;;;;;5029736;28;20453;-85
2022/07/04 02:23:05;;;;;;;1.83;1.40;;;19.60;72.20;;;;;;5027690;28;20454;-84
2022/07/04 02:25:32;;;;;;;3.67;1.67;;;19.60;72.60;;;;;;5028197;28;20470;-84
2022/07/04 02:27:59;;;;;;;2.30;1.70;;;19.50;73.00;;;;;;4995446;28;20446;-83
2022/07/04 02:30:26;;;;;;;2.13;1.77;;;19.60;73.30;;;;;;5008589;28;20461;-83
2022/07/04 02:32:52;;;;;;;3.00;1.70;;;19.50;74.10;;;;;;5015675;28;20451;-82
2022/07/04 02:35:19;;;;;;;1.40;1.30;;;19.50;73.60;;;;;;5017735;28;20523;-85
2022/07/04 02:37:46;;;;;;;4.63;1.90;;;19.50;73.70;;;;;;5002063;28;20460;-84
2022/07/04 02:40:13;;;;;;;1.77;1.67;;;19.40;73.80;;;;;;5019382;28;20455;-83
2022/07/04 02:42:39;;;;;;;3.00;1.77;;;19.30;74.10;;;;;;5018216;28;20944;-83
2022/07/04 02:45:07;;;;;;;2.30;1.33;;;19.30;74.80;;;;;;5019941;28;20525;-85
2022/07/04 02:47:34;;;;;;;2.90;1.60;;;19.20;75.20;;;;;;5002211;28;20509;-84
2022/07/04 02:50:02;;;;;;;2.80;2.07;;;19.10;75.60;;;;;;5025250;28;20429;-84
2022/07/04 02:52:29;;;;;;;2.00;1.53;;;19.20;75.80;;;;;;5032321;28;20453;-85
2022/07/04 02:54:57;;;;;;;1.80;1.70;;;19.20;75.90;;;;;;5013215;28;20508;-85
2022/07/04 02:57:24;;;;;;;3.10;2.20;;;19.20;76.10;;;;;;5018676;28;20589;-80
2022/07/04 02:59:50;;;;;;;1.70;1.60;;;19.20;76.50;;;;;;5018511;28;20567;-83
2022/07/04 03:02:17;;;;;;;1.83;1.70;;;19.20;76.70;;;;;;4999016;28;20442;-83
2022/07/04 03:04:44;;;;;;;3.00;1.60;;;19.30;76.80;;;;;;5014631;28;20450;-83
2022/07/04 03:07:11;;;;;;;1.90;1.57;;;19.30;76.90;;;;;;5025622;28;20545;-83
2022/07/04 03:09:37;;;;;;;3.57;1.60;;;19.30;77.20;;;;;;5012546;28;20452;-84
2022/07/04 03:12:05;;;;;;;2.40;1.73;;;19.30;77.40;;;;;;4995572;28;20454;-84
2022/07/04 03:14:31;;;;;;;2.57;1.60;;;19.30;77.70;;;;;;4970454;28;20477;-85
2022/07/04 03:16:58;;;;;;;2.30;1.30;;;19.20;77.90;;;;;;5009443;28;20481;-83
2022/07/04 03:19:25;;;;;;;4.37;1.60;;;19.20;78.50;;;;;;5010885;28;20481;-85
2022/07/04 03:21:52;;;;;;;2.20;1.70;;;19.10;78.90;;;;;;5009478;28;20884;-84
2022/07/04 03:24:18;;;;;;;3.20;1.40;;;19.10;79.80;;;;;;4992598;28;20465;-83
2022/07/04 03:26:45;;;;;;;4.20;1.53;;;19.00;80.20;;;;;;4999947;28;20465;-84
2022/07/04 03:29:13;;;;;;;5.23;1.80;;;19.00;80.80;;;;;;5016584;28;20544;-83
2022/07/04 03:31:42;;;;;;;3.27;1.60;;;19.00;81.10;;;;;;5019629;28;20456;-85
2022/07/04 03:34:09;;;;;;;3.40;1.90;;;19.10;81.20;;;;;;5018459;28;20537;-82
2022/07/04 03:36:38;;;;;;;1.87;1.27;;;19.10;81.50;;;;;;4994454;28;20512;-82
2022/07/04 03:39:05;;;;;;;6.07;2.63;;;19.10;81.80;;;;;;5010126;28;20481;-81
2022/07/04 03:41:33;;;;;;;2.70;1.60;;;19.10;82.00;;;;;;4987706;28;20561;-82
2022/07/04 03:43:59;;;;;;;1.40;1.30;;;19.10;82.10;;;;;;5008367;28;20441;-83
2022/07/04 03:46:26;;;;;;;4.37;2.37;;;19.10;82.40;;;;;;5007041;28;20470;-82
2022/07/04 03:48:54;;;;;;;3.77;2.07;;;19.00;82.70;;;;;;4993894;28;20461;-82
2022/07/04 03:51:22;;;;;;;3.03;1.53;;;19.00;83.20;;;;;;5019322;28;20442;-84
2022/07/04 03:53:49;;;;;;;4.37;2.00;;;19.00;83.60;;;;;;5012802;28;20478;-82
2022/07/04 03:56:16;;;;;;;3.70;1.90;;;19.00;83.60;;;;;;5027927;28;20470;-84
2022/07/04 03:58:43;;;;;;;3.40;2.00;;;19.00;84.00;;;;;;5010797;28;20473;-84
2022/07/04 04:01:09;;;;;;;2.50;1.90;;;19.00;84.10;;;;;;5012315;28;20427;-84
2022/07/04 04:06:22;;;;;;;4.60;2.27;;;19.10;84.40;;;;;;5022927;28;20470;-84
2022/07/04 04:08:48;;;;;;;3.87;1.83;;;19.10;84.50;;;;;;4995045;28;21020;-84
2022/07/04 04:11:15;;;;;;;7.20;1.70;;;19.00;84.80;;;;;;5020440;28;20556;-85
2022/07/04 04:13:42;;;;;;;5.93;3.67;;;19.10;85.10;;;;;;5021337;28;20461;-84
2022/07/04 04:16:09;;;;;;;3.33;2.00;;;19.20;84.20;;;;;;5004065;28;20477;-84
2022/07/04 04:18:36;;;;;;;4.80;2.00;;;19.20;84.30;;;;;;5021600;28;20549;-84
2022/07/04 04:21:04;;;;;;;5.40;2.20;;;19.10;84.80;;;;;;5022198;28;20434;-84
2022/07/04 04:23:31;;;;;;;6.60;2.10;;;19.00;85.40;;;;;;5022202;28;20437;-84
2022/07/04 04:25:57;;;;;;;3.20;1.73;;;18.80;86.30;;;;;;4995012;28;20476;-84
2022/07/04 04:28:24;;;;;;;2.97;2.10;;;18.70;87.40;;;;;;5009708;28;20434;-84
2022/07/04 04:30:51;;;;;;;2.77;2.20;;;18.90;87.50;;;;;;5010822;28;20868;-84
2022/07/04 04:33:18;;;;;;;3.10;2.40;;;18.80;87.40;;;;;;5011749;28;20446;-83
2022/07/04 04:35:44;;;;;;;4.07;2.10;;;18.80;87.60;;;;;;5010788;28;20497;-83
2022/07/04 04:38:11;;;;;;;5.50;2.37;;;18.70;88.20;;;;;;4996329;28;20461;-84
2022/07/04 04:40:37;;;;;;;3.83;2.20;;;18.70;88.20;;;;;;4995032;28;20589;-82
2022/07/04 04:43:04;;;;;;;2.63;1.83;;;18.60;88.30;;;;;;5009766;28;20493;-83
2022/07/04 04:45:31;;;;;;;3.90;2.30;;;18.90;88.30;;;;;;5010139;28;20557;-83
2022/07/04 04:47:57;;;;;;;6.70;2.00;;;19.10;87.20;;;;;;5008125;28;21021;-82
2022/07/04 04:50:24;;;;;;;6.03;2.40;;;18.90;87.40;;;;;;5008831;28;21180;-84
2022/07/04 04:52:51;;;;;;;3.70;2.80;;;18.90;87.70;;;;;;5007620;28;20458;-82
2022/07/04 04:55:18;;;;;;;6.53;1.90;;;19.00;88.30;;;;;;5010570;28;20493;-84
2022/07/04 04:57:44;;;;;;;6.30;2.20;;;18.90;88.20;;;;;;5010871;28;20453;-84
2022/07/04 05:00:11;;;;;;;2.20;2.00;;;18.90;88.60;;;;;;5013497;28;20441;-83
2022/07/04 05:02:38;;;;;;;2.30;2.10;;;18.80;88.80;;;;;;5013682;28;20978;-82
2022/07/04 05:05:06;;;;;;;2.30;2.03;;;18.80;88.80;;;;;;4992982;28;20533;-84
2022/07/04 05:07:33;;;;;;;2.90;2.53;;;18.80;89.10;;;;;;5010373;28;21203;-85
2022/07/04 05:10:01;;;;;;;4.07;2.40;;;18.80;89.40;;;;;;5012527;28;20472;-84
2022/07/04 05:12:28;;;;;;;1.90;1.80;;;18.90;89.80;;;;;;5011485;28;20454;-83
2022/07/04 05:14:55;;;;;;;4.27;2.40;;;18.90;90.00;;;;;;5008680;28;20476;-84
2022/07/04 05:17:21;;;;;;;4.10;2.13;;;19.00;90.10;;;;;;5010203;28;20489;-85
2022/07/04 05:19:48;;;;;;;5.30;2.37;;;19.20;90.00;;;;;;4992354;28;20466;-85
2022/07/04 05:22:15;;;;;;;3.37;2.03;;;19.50;88.20;;;;;;4995140;28;20470;-85
2022/07/04 05:24:42;;;;;;;2.37;2.17;;;19.20;88.70;;;;;;5013489;28;21025;-85
2022/07/04 05:27:09;;;;;;;3.73;2.20;;;19.20;89.70;;;;;;5014251;28;21091;-85
2022/07/04 05:29:37;;;;;;;2.97;1.50;;;19.10;90.00;;;;;;5014087;28;20488;-86
2022/07/04 05:32:05;;;;;;;3.83;2.30;;;19.00;90.20;;;;;;5016469;28;20536;-85
2022/07/04 05:34:31;;;;;;;7.63;2.47;;;19.00;90.60;;;;;;5012651;28;20535;-82
2022/07/04 05:36:58;;;;;;;2.77;2.30;;;19.00;90.70;;;;;;5016717;28;20499;-83
2022/07/04 05:39:25;;;;;;;3.00;2.40;;;19.10;90.70;;;;;;5014733;28;20774;-84
2022/07/04 05:41:54;;;;;;;7.10;2.50;;;19.50;90.00;;;;;;4999282;28;20971;-83
2022/07/04 05:44:20;;;;;;;3.70;2.27;;;19.60;89.50;;;;;;5013725;28;20465;-83
2022/07/04 05:46:47;;;;;;;2.53;2.30;;;19.80;89.60;;;;;;4998804;28;20473;-82
2022/07/04 05:49:14;;;;;;;2.70;2.30;;;19.60;89.00;;;;;;4997461;28;20450;-84
2022/07/04 05:51:40;;;;;;;3.43;2.63;;;19.60;89.80;;;;;;4995606;28;20450;-82
2022/07/04 05:54:07;;;;;;;3.87;2.60;;;19.30;90.20;;;;;;5017515;28;20465;-83
2022/07/04 05:56:34;;;;;;;3.50;2.40;;;19.10;90.70;;;;;;5028562;28;20474;-84
2022/07/04 05:59:00;;;;;;;8.73;2.50;;;19.10;91.10;;;;;;5032352;28;20445;-84
2022/07/04 06:01:27;;;;;;;3.17;2.27;;;19.10;91.30;;;;;;5024479;28;20493;-82
2022/07/04 06:03:54;;;;;;;3.50;2.30;;;19.30;91.00;;;;;;5002143;28;20669;-84
2022/07/04 06:06:20;;;;;;;4.43;2.33;;;19.30;90.80;;;;;;5001110;28;20465;-83
2022/07/04 06:08:47;;;;;;;4.17;2.67;;;19.40;90.80;;;;;;5003806;28;20541;-82
2022/07/04 06:11:14;;;;;;;3.93;2.90;;;19.30;90.80;;;;;;5015627;28;20459;-84
2022/07/04 06:13:44;;;;;;;3.33;2.20;;;19.40;90.80;;;;;;4991546;28;20450;-83
2022/07/04 06:16:10;;;;;;;5.27;2.10;;;19.40;90.90;;;;;;5013542;28;20604;-84
2022/07/04 06:18:37;;;;;;;4.37;2.13;;;19.60;90.90;;;;;;4996411;28;21937;-83
2022/07/04 06:21:04;;;;;;;3.03;1.80;;;19.60;90.20;;;;;;5013507;28;20437;-84
2022/07/04 06:23:30;;;;;;;4.80;2.10;;;19.50;90.00;;;;;;4978066;28;20462;-84
2022/07/04 06:25:57;;;;;;;3.37;2.17;;;19.50;89.60;;;;;;5012474;28;20477;-84
2022/07/04 06:28:24;;;;;;;6.17;1.70;;;19.60;89.60;;;;;;5013747;28;20470;-83
2022/07/04 06:31:12;;;;;;;2.33;1.60;;;19.60;89.60;;;;;;5012621;28;20453;-85
2022/07/04 06:36:24;;;;;;;2.27;1.60;;;19.50;87.50;;;;;;5028646;28;20564;-84
2022/07/04 06:38:51;;;;;;;2.60;1.40;;;20.10;85.00;;;;;;5022567;28;20473;-86
2022/07/04 06:41:17;;;;;;;1.60;1.50;;;20.40;82.50;;;;;;4978626;28;20465;-83
2022/07/04 06:43:44;;;;;;;2.43;1.53;;;20.30;82.40;;;;;;5021358;28;20462;-87
2022/07/04 06:46:10;;;;;;;2.47;1.43;;;20.20;82.20;;;;;;5012400;28;20465;-86
2022/07/04 06:48:37;;;;;;;3.00;1.50;;;20.20;82.10;;;;;;5027866;28;20450;-85
2022/07/04 06:51:04;;;;;;;1.67;1.23;;;20.30;81.90;;;;;;5020321;28;20461;-82
2022/07/04 06:53:31;;;;;;;1.90;1.80;;;20.20;79.90;;;;;;5012580;28;22666;-81
2022/07/04 06:55:57;;;;;;;2.30;1.20;;;20.10;79.10;;;;;;5004089;28;20579;-80
2022/07/04 06:58:24;;;;;;;2.00;1.40;;;20.20;75.90;;;;;;4988584;28;20510;-83
2022/07/04 07:00:51;;;;;;;3.00;1.40;;;20.10;77.50;;;;;;5003106;28;20653;-82
2022/07/04 07:03:18;;;;;;;1.80;1.60;;;20.20;77.10;;;;;;5007000;28;20460;-82
2022/07/04 07:05:45;;;;;;;2.40;1.20;;;20.10;78.30;;;;;;5004713;28;20482;-82
2022/07/04 07:08:30;;;;;;;1.50;1.07;;;20.00;77.80;;;;;;4992227;28;20478;-84
2022/07/04 07:11:12;;;;;;;3.87;1.37;;;19.90;77.40;;;;;;5007506;28;20465;-82
2022/07/04 07:13:44;;;;;;;5.63;1.90;;;20.00;75.40;;;;;;5011425;28;20446;-84
2022/07/04 07:16:12;;;;;;;2.20;1.43;;;20.20;72.90;;;;;;4996450;28;21015;-83
2022/07/04 07:18:38;;;;;;;1.73;1.30;;;20.30;73.20;;;;;;5014909;28;20492;-83
2022/07/04 07:21:05;;;;;;;1.70;0.80;;;20.60;72.40;;;;;;5020011;28;20443;-85
2022/07/04 07:23:32;;;;;;;1.10;0.93;;;20.80;69.60;;;;;;4999353;28;20472;-81
2022/07/04 07:25:59;;;;;;;1.37;1.00;;;20.60;70.60;;;;;;5018036;28;20488;-84
2022/07/04 07:28:25;;;;;;;2.67;1.00;;;20.50;70.80;;;;;;4998778;28;20462;-84
2022/07/04 07:30:52;;;;;;;1.47;1.00;;;20.70;70.90;;;;;;5021470;28;20512;-83
2022/07/04 07:33:18;;;;;;;4.10;1.00;;;21.20;69.10;;;;;;5014236;28;20524;-83
2022/07/04 07:35:45;;;;;;;1.40;0.90;;;21.30;68.30;;;;;;5016552;28;20517;-83
2022/07/04 07:38:12;;;;;;;2.40;1.03;;;21.20;66.70;;;;;;5017541;28;20446;-84
2022/07/04 07:40:38;;;;;;;1.57;0.80;;;21.20;65.90;;;;;;5013850;28;20458;-82
2022/07/04 07:43:06;;;;;;;3.10;1.00;;;20.90;66.90;;;;;;5029079;28;20461;-85
2022/07/04 07:45:33;;;;;;;1.60;0.80;;;20.90;67.70;;;;;;5009814;28;20462;-81
2022/07/04 07:48:00;;;;;;;0.70;0.70;;;20.90;67.60;;;;;;4996960;28;20481;-82
2022/07/04 07:50:26;;;;;;;0.80;0.80;;;20.90;67.60;;;;;;4998635;28;20473;-85
2022/07/04 07:52:53;;;;;;;1.20;1.00;;;21.00;63.50;;;;;;5016397;28;20435;-82
2022/07/04 07:55:20;;;;;;;0.83;0.80;;;20.90;64.00;;;;;;5009174;28;20521;-84
2022/07/04 07:57:46;;;;;;;1.37;0.80;;;20.90;62.90;;;;;;5018817;28;20482;-83
2022/07/04 08:00:15;;;;;;;2.77;1.30;;;21.60;62.30;;;;;;5023088;28;20438;-86
2022/07/04 08:05:43;;;;;;;2.17;1.00;;;21.40;61.50;;;;;;5007988;28;20508;-83
2022/07/04 08:08:10;;;;;;;1.93;1.00;;;21.30;60.80;;;;;;5008214;28;20462;-82
2022/07/04 08:10:37;;;;;;;1.20;1.10;;;21.30;62.70;;;;;;5008984;28;20453;-83
2022/07/04 08:13:05;;;;;;;0.83;0.80;;;21.30;63.10;;;;;;5009099;28;20821;-84
2022/07/04 08:15:32;;;;;;;0.80;0.80;;;21.50;61.40;;;;;;5008736;28;20866;-85
2022/07/04 08:17:59;;;;;;;1.73;0.87;;;22.10;59.70;;;;;;4992150;28;20473;-84
2022/07/04 08:20:26;;;;;;;1.30;1.00;;;22.00;59.60;;;;;;4992201;28;21733;-84
2022/07/04 08:22:52;;;;;;;0.80;0.80;;;21.80;60.00;;;;;;5007393;28;23064;-83
2022/07/04 08:25:20;;;;;;;2.60;1.00;;;21.70;60.70;;;;;;4991014;28;20477;-83
2022/07/04 08:27:47;;;;;;;1.70;0.60;;;21.80;60.30;;;;;;5018627;28;20471;-84
2022/07/04 08:30:14;;;;;;;0.90;0.70;;;21.70;59.70;;;;;;5016538;28;22188;-84
2022/07/04 08:32:40;;;;;;;3.37;1.33;;;21.80;59.50;;;;;;5018882;28;20535;-84
2022/07/04 08:35:08;;;;;;;1.67;0.70;;;21.90;59.40;;;;;;5017951;28;20477;-83
2022/07/04 08:37:35;;;;;;;1.53;0.70;;;22.20;58.90;;;;;;5018622;28;20485;-84
2022/07/04 08:40:06;;;;;;;2.33;0.87;;;22.40;57.30;;;;;;5016414;28;20458;-86
2022/07/04 08:42:39;;;;;;;0.90;0.70;;;22.40;56.60;;;;;;5019008;28;20485;-85
2022/07/04 08:45:07;;;;;;;1.23;0.83;;;22.40;56.80;;;;;;5002801;28;20471;-85
2022/07/04 08:47:35;;;;;;;2.00;1.00;;;22.60;55.60;;;;;;5020245;28;20441;-82
2022/07/04 08:50:29;;;;;;;3.13;1.00;;;22.80;55.00;;;;;;5003609;28;20454;-84
2022/07/04 08:53:01;;;;;;;1.40;0.90;;;23.00;54.70;;;;;;5018705;28;20813;-83
2022/07/04 08:58:30;;;;;;;1.47;0.80;;;25.40;49.70;;;;;;5022333;28;20464;-84
2022/07/04 09:01:00;;;;;;;2.63;0.93;;;25.00;49.50;;;;;;5019620;28;20456;-83
2022/07/04 09:03:27;;;;;;;1.30;0.70;;;24.50;50.30;;;;;;5020670;28;20451;-85
2022/07/04 09:05:55;;;;;;;1.10;0.90;;;24.70;50.50;;;;;;5013606;28;20569;-84
2022/07/04 09:08:23;;;;;;;1.53;0.83;;;24.80;50.40;;;;;;5029634;28;20441;-83
2022/07/04 09:10:51;;;;;;;1.73;1.10;;;24.90;50.70;;;;;;5009038;28;20545;-84
2022/07/04 09:13:18;;;;;;;1.27;0.70;;;24.90;50.20;;;;;;5022322;28;20483;-82
2022/07/04 09:15:47;;;;;;;2.60;1.53;;;24.90;49.90;;;;;;5018227;28;20549;-83
2022/07/04 09:18:25;;;;;;;1.77;0.70;;;24.90;50.00;;;;;;5000084;28;20480;-84
2022/07/04 09:20:53;;;;;;;1.93;1.10;;;25.20;50.70;;;;;;4996760;28;20464;-84
2022/07/04 09:23:22;;;;;;;2.50;1.17;;;25.50;49.70;;;;;;5012369;28;20520;-83
2022/07/04 09:26:06;;;;;;;1.37;0.90;;;27.20;47.30;;;;;;5012425;28;20469;-82
2022/07/04 09:28:33;;;;;;;2.60;1.00;;;27.80;45.50;;;;;;5009741;28;20513;-83
2022/07/04 09:31:00;;;;;;;2.87;1.00;;;28.80;44.00;;;;;;5010668;28;20461;-83
2022/07/04 09:33:46;;;;;;;2.40;0.87;;;28.10;44.50;;;;;;5010522;28;20982;-85
2022/07/04 09:36:14;;;;;;;1.93;1.00;;;29.00;43.10;;;;;;5002147;28;20496;-83
2022/07/04 09:38:42;;;;;;;2.33;1.33;;;29.30;42.70;;;;;;5014353;28;21312;-84
2022/07/04 09:44:02;;;;;;;1.47;0.90;;;29.10;42.80;;;;;;5009434;28;20485;-84
2022/07/04 09:46:29;;;;;;;2.53;1.00;;;29.60;41.50;;;;;;4995163;28;20477;-84
2022/07/04 09:48:56;;;;;;;1.73;1.00;;;30.40;39.60;;;;;;5010245;28;20541;-85
2022/07/04 09:51:46;;;;;;;2.40;1.20;;;30.60;39.00;;;;;;4993362;28;20449;-84
2022/07/04 09:54:31;;;;;;;1.83;0.90;;;30.50;39.20;;;;;;5011644;28;20563;-85
2022/07/04 09:57:01;;;;;;;1.23;0.97;;;30.10;38.20;;;;;;4994018;28;20530;-84
2022/07/04 09:59:29;;;;;;;2.23;0.90;;;29.70;38.90;;;;;;5010666;28;20442;-83
2022/07/04 10:02:13;;;;;;;2.70;0.97;;;29.60;38.70;;;;;;5010673;28;20453;-83
2022/07/04 10:04:51;;;;;;;1.13;0.90;;;29.90;38.20;;;;;;5011453;28;20457;-85
2022/07/04 10:07:31;;;;;;;1.30;0.70;;;30.90;37.40;;;;;;4991919;28;20487;-86
2022/07/04 10:09:57;;;;;;;1.67;1.00;;;31.70;35.40;;;;;;5009829;28;20429;-83
2022/07/04 10:12:26;;;;;;;0.83;0.83;;;31.10;36.10;;;;;;5010904;28;20967;-82
2022/07/04 10:14:56;;;;;;;2.60;0.77;;;31.40;35.60;;;;;;5012252;28;20454;-84
2022/07/04 10:17:23;;;;;;;1.73;0.70;;;32.60;34.20;;;;;;4987747;28;20493;-87
2022/07/04 10:19:52;;;;;;;1.83;0.80;;;32.80;33.80;;;;;;4988921;28;20473;-85
2022/07/04 10:22:21;;;;;;;1.20;0.70;;;33.00;33.00;;;;;;5006810;28;20461;-85
2022/07/04 10:24:47;;;;;;;1.27;0.80;;;32.90;33.00;;;;;;5011826;28;20971;-82
2022/07/04 10:27:15;;;;;;;1.20;1.10;;;32.20;33.80;;;;;;4994615;28;20477;-85
2022/07/04 10:29:41;;;;;;;1.60;0.83;;;31.80;34.00;;;;;;4995957;28;20469;-86
2022/07/04 10:32:09;;;;;;;1.50;0.90;;;32.20;34.40;;;;;;5006875;28;20503;-84
2022/07/04 10:34:41;;;;;;;1.67;0.80;;;32.10;34.30;;;;;;5006865;28;20458;-83
2022/07/04 10:37:08;;;;;;;0.70;0.70;;;31.20;35.10;;;;;;4992855;28;20485;-85
2022/07/04 10:39:35;;;;;;;1.87;0.73;;;31.80;35.60;;;;;;4992524;28;20730;-84
2022/07/04 10:42:02;;;;;;;2.20;1.30;;;31.70;34.60;;;;;;4996488;28;20956;-84
2022/07/04 10:44:37;;;;;;;1.50;0.80;;;31.50;34.80;;;;;;5011474;28;20481;-86
2022/07/04 10:47:05;;;;;;;1.40;1.00;;;31.10;35.10;;;;;;5012999;28;20526;-83
2022/07/04 10:49:34;;;;;;;1.30;0.80;;;30.50;36.10;;;;;;5012013;28;20478;-86
2022/07/04 10:52:03;;;;;;;3.63;0.80;;;30.30;36.60;;;;;;5010353;28;20458;-83
2022/07/04 10:54:33;;;;;;;1.57;0.90;;;30.30;36.60;;;;;;5011029;28;20545;-85
2022/07/04 10:57:24;;;;;;;0.97;0.80;;;30.10;36.80;;;;;;4995301;28;20532;-83
2022/07/04 10:59:53;;;;;;;1.57;1.10;;;30.30;37.40;;;;;;5008627;28;20458;-85
2022/07/04 11:02:22;;;;;;;1.70;0.70;;;31.80;36.30;;;;;;5013064;28;20466;-85
2022/07/04 11:04:58;;;;;;;1.07;0.90;;;32.30;35.20;;;;;;5010478;28;20980;-83
2022/07/04 11:07:40;;;;;;;1.03;0.63;;;32.10;34.20;;;;;;5010516;28;20453;-84
2022/07/04 11:10:13;;;;;;;1.37;0.67;;;30.90;35.30;;;;;;4994557;28;20441;-84
2022/07/04 11:12:58;;;;;;;0.90;0.80;;;30.60;35.90;;;;;;5012416;28;20812;-86
2022/07/04 11:15:24;;;;;;;5.97;0.90;;;30.40;34.70;;;;;;5011263;28;20469;-86
2022/07/04 11:17:52;;;;;;;2.30;0.87;;;30.30;35.60;;;;;;5006626;28;20465;-84
2022/07/04 11:20:19;;;;;;;3.13;0.90;;;30.40;35.80;;;;;;5008408;28;20454;-82
2022/07/04 11:22:46;;;;;;;1.50;0.97;;;30.30;36.80;;;;;;5012294;28;20449;-85
2022/07/04 11:25:14;;;;;;;2.00;0.90;;;31.30;36.80;;;;;;4988206;28;20470;-82
2022/07/04 11:27:41;;;;;;;2.40;1.10;;;32.60;34.60;;;;;;5010087;28;20468;-84
2022/07/04 11:30:09;;;;;;;7.67;1.10;;;32.40;34.10;;;;;;4991205;28;20458;-83
2022/07/04 11:32:41;;;;;;;1.17;1.00;;;31.10;35.70;;;;;;4989251;28;20491;-83
2022/07/04 11:35:08;;;;;;;1.80;0.80;;;30.40;37.30;;;;;;5007803;28;20461;-86
2022/07/04 11:37:35;;;;;;;1.47;0.90;;;29.90;37.40;;;;;;5007833;28;20484;-85
2022/07/04 11:45:53;;;;;;;3.63;1.10;;;30.60;36.60;;;;;;5009337;28;20482;-85
2022/07/04 11:48:26;;;;;;;1.93;0.77;;;31.40;35.20;;;;;;5011252;28;20464;-84
2022/07/04 11:50:54;;;;;;;1.33;1.07;;;30.70;35.90;;;;;;4992199;28;20925;-85
2022/07/04 11:53:21;;;;;;;1.80;0.90;;;30.40;36.90;;;;;;5001188;28;20470;-83
2022/07/04 11:55:56;;;;;;;1.60;1.10;;;29.80;38.20;;;;;;4988956;28;21718;-84
2022/07/04 11:58:23;;;;;;;2.30;1.50;;;29.80;38.80;;;;;;5009818;28;20962;-85
2022/07/04 12:00:50;;;;;;;6.07;1.80;;;29.70;39.00;;;;;;5009285;28;20462;-84
2022/07/04 12:03:17;;;;;;;2.67;1.30;;;29.50;39.60;;;;;;5009802;28;20465;-83
2022/07/04 12:05:46;;;;;;;2.63;1.63;;;29.20;39.90;;;;;;5014324;28;20473;-82
2022/07/04 12:08:12;;;;;;;1.97;1.30;;;29.30;40.00;;;;;;5016192;28;20478;-84
2022/07/04 12:10:54;;;;;;;4.10;1.00;;;29.70;39.20;;;;;;5008526;28;20445;-85
2022/07/04 12:13:21;;;;;;;1.60;0.73;;;29.90;38.30;;;;;;5005195;28;20446;-83
2022/07/04 12:15:49;;;;;;;4.10;2.30;;;29.90;36.80;;;;;;5012809;28;21804;-81
2022/07/04 12:18:20;;;;;;;4.00;1.20;;;30.40;36.10;;;;;;5008118;28;20621;-85
2022/07/04 12:20:49;;;;;;;1.63;1.10;;;30.00;37.60;;;;;;5011694;28;20521;-83
2022/07/04 12:23:17;;;;;;;4.07;1.10;;;29.90;38.10;;;;;;4993065;28;20517;-83
2022/07/04 12:25:47;;;;;;;2.20;1.23;;;30.10;37.80;;;;;;5012635;28;20557;-82
2022/07/04 12:28:16;;;;;;;2.53;1.57;;;30.50;37.00;;;;;;4993898;28;20450;-83
2022/07/04 12:30:57;;;;;;;4.27;1.70;;;30.30;37.10;;;;;;4993453;28;20481;-84
2022/07/04 12:33:29;;;;;;;1.50;1.33;;;29.30;38.80;;;;;;5012100;28;20465;-83
2022/07/04 12:36:06;;;;;;;1.97;1.20;;;28.70;39.80;;;;;;5010899;28;20937;-81
2022/07/04 12:38:41;;;;;;;1.80;1.00;;;28.40;41.10;;;;;;5012702;28;20468;-84
2022/07/04 12:41:13;;;;;;;2.57;1.17;;;28.20;40.80;;;;;;5013860;28;20456;-87
2022/07/04 12:43:42;;;;;;;1.23;1.03;;;28.10;40.90;;;;;;5025813;28;20456;-83
2022/07/04 12:46:24;;;;;;;1.27;1.10;;;28.40;41.10;;;;;;5024849;28;20469;-84
2022/07/04 12:48:55;;;;;;;1.33;1.00;;;28.40;40.00;;;;;;5020373;28;20461;-88
2022/07/04 12:51:24;;;;;;;1.40;1.30;;;28.60;39.70;;;;;;5000046;28;20462;-83
2022/07/04 12:53:53;;;;;;;1.40;1.00;;;29.00;39.40;;;;;;5010607;28;20492;-85
2022/07/04 12:56:31;;;;;;;2.47;1.00;;;29.20;38.90;;;;;;5011051;28;20608;-83
2022/07/04 12:59:04;;;;;;;2.37;1.70;;;29.20;39.00;;;;;;5011007;28;20999;-84
2022/07/04 13:01:37;;;;;;;1.97;1.10;;;29.00;39.00;;;;;;5012065;28;20474;-85
2022/07/04 13:04:04;;;;;;;2.17;1.00;;;28.90;39.10;;;;;;5018848;28;20458;-84
2022/07/04 13:06:31;;;;;;;1.23;1.00;;;28.80;39.20;;;;;;5018331;28;21007;-84
2022/07/04 13:08:59;;;;;;;2.00;1.07;;;28.90;39.30;;;;;;5016333;28;20465;-82
2022/07/04 13:14:11;;;;;;;1.17;0.80;;;28.90;39.00;;;;;;5014202;28;20445;-83
2022/07/04 13:16:38;;;;;;;1.57;1.13;;;28.70;39.30;;;;;;5012931;28;20493;-83
2022/07/04 13:19:06;;;;;;;2.23;0.93;;;28.80;39.30;;;;;;4996462;28;20463;-85